Weather at Georgetown Municipal Airport

Public forecast

Using degrees Fahrenheit for public forecast. Weather courtesy of forecast.io.

Current aviation weather report (METAR) for Georgetown Municipal Airport

Retrieved 2020/12/03 12:56 UTC (15 minutes ago):

KGTU 031256Z 27009KT 10SM CLR 02/M03 A3027 RMK AO2 SLP256 T00171028 FZRANO

Closest aviation forecast (TAF) to Georgetown Municipal Airport

Forecast is more than 12 hours old.

Closest forecast is Robert Gray Army Air Field Airport, 24.6 nm (45.5 km) NNW. Retrieved 2020/12/02 16:57 UTC (20 hours ago):

TAF KGRK 021600Z 0216/0322 36009KT 9999 SCT090 510102 QNH3007INS BECMG 0221/0222 35015G20KT 9999 SKC 510107 QNH3008INS BECMG 0223/0224 34012KT 9999 SKC 510106 QNH3011INS BECMG 0317/0318 33012G18KT 9999 SKC 510102 QNH3015INS TX14/0220Z TN03/0310Z